Julie C — 2CJQ7 — position and weather

sailwx.info

Track history (hours):
 
Tides and Currents Weather Stations Pressure Air Temp Water Temp Dewpoint Dewpoint Depression Visibility Wind Speed Wind Dir Waves Ship Positions

Julie C

Last reported at 2017-Dec-09 10:10 UTC. Time now 2017-Dec-13 14:55 UTC.
Position N 01°15' E 104°02'.

Length 138 m; draft 8.2 m.

Type: Ship. MMSI: 235073372.

Date/timePositionNaut miles runAvg speedWind from/ knotsBaromVisibWave heightAir tempDewpointWater temp
2017-Dec-09 10:10N 01°15' E 104°02'213.5
2017-Dec-09 10:00N 01°15' E 103°59'4 8.2
2017-Dec-09 09:30N 01°16' E 103°56'2 4.1
2017-Dec-09 08:59N 01°16' E 103°53'0 0.1
2017-Dec-09 07:56N 01°16' E 103°53'0 0.0
2017-Dec-09 06:38N 01°16' E 103°53'0 0.0
2017-Dec-09 06:23N 01°16' E 103°53'0 0.1
2017-Dec-09 05:41N 01°16' E 103°53'0 0.0
2017-Dec-09 05:11N 01°16' E 103°53'0 0.0
2017-Dec-09 04:59N 01°16' E 103°53'0 0.0
2017-Dec-09 04:29N 01°16' E 103°53'0 0.0
2017-Dec-09 03:38N 01°16' E 103°53'0 0.0
2017-Dec-09 03:29N 01°16' E 103°53'0 0.0
2017-Dec-09 02:56N 01°16' E 103°53'0 0.0
2017-Dec-09 02:29N 01°16' E 103°53'0 0.0
2017-Dec-09 01:56N 01°16' E 103°53'0 0.0
2017-Dec-09 01:29N 01°16' E 103°53'0 0.0
2017-Dec-09 00:53N 01°16' E 103°53'0 0.0
2017-Dec-09 00:29N 01°16' E 103°53'0 0.0
2017-Dec-08 23:59N 01°16' E 103°53'0 0.0
2017-Dec-08 23:23N 01°16' E 103°53'0 0.1
2017-Dec-08 22:47N 01°16' E 103°53'0 1.4
2017-Dec-08 22:30N 01°16' E 103°53'3 5.2
2017-Dec-08 22:01N 01°13' E 103°53'3 5.7
2017-Dec-08 21:30N 01°11' E 103°51'5 9.1
2017-Dec-08 21:00N 01°09' E 103°47'510.9
2017-Dec-08 20:30N 01°05' E 103°44'5 9.8
2017-Dec-08 20:01N 01°03' E 103°39'612.6
2017-Dec-08 19:31N 01°06' E 103°34'814.0
2017-Dec-08 18:57N 01°10' E 103°27'614.2
2017-Dec-08 18:30N 01°13' E 103°22'  
Track history (hours):
 
Tides and Currents Weather Stations Pressure Air Temp Water Temp Dewpoint Dewpoint Depression Visibility Wind Speed Wind Dir Waves Ship Positions

Julie C

Last reported at 2017-Dec-09 10:10 UTC. Time now 2017-Dec-13 14:55 UTC.
Position N 01°15' E 104°02'.

Length 138 m; draft 8.2 m.

Type: Ship. MMSI: 235073372.

Date/timePositionNaut miles runAvg speedWind from/ knotsBaromVisibWave heightAir tempDewpointWater temp
2017-Dec-09 10:10N 01°15' E 104°02'213.5
2017-Dec-09 10:00N 01°15' E 103°59'4 8.2
2017-Dec-09 09:30N 01°16' E 103°56'2 4.1
2017-Dec-09 08:59N 01°16' E 103°53'0 0.1
2017-Dec-09 07:56N 01°16' E 103°53'0 0.0
2017-Dec-09 06:38N 01°16' E 103°53'0 0.0
2017-Dec-09 06:23N 01°16' E 103°53'0 0.1
2017-Dec-09 05:41N 01°16' E 103°53'0 0.0
2017-Dec-09 05:11N 01°16' E 103°53'0 0.0
2017-Dec-09 04:59N 01°16' E 103°53'0 0.0
2017-Dec-09 04:29N 01°16' E 103°53'0 0.0
2017-Dec-09 03:38N 01°16' E 103°53'0 0.0
2017-Dec-09 03:29N 01°16' E 103°53'0 0.0
2017-Dec-09 02:56N 01°16' E 103°53'0 0.0
2017-Dec-09 02:29N 01°16' E 103°53'0 0.0
2017-Dec-09 01:56N 01°16' E 103°53'0 0.0
2017-Dec-09 01:29N 01°16' E 103°53'0 0.0
2017-Dec-09 00:53N 01°16' E 103°53'0 0.0
2017-Dec-09 00:29N 01°16' E 103°53'0 0.0
2017-Dec-08 23:59N 01°16' E 103°53'0 0.0
2017-Dec-08 23:23N 01°16' E 103°53'0 0.1
2017-Dec-08 22:47N 01°16' E 103°53'0 1.4
2017-Dec-08 22:30N 01°16' E 103°53'3 5.2
2017-Dec-08 22:01N 01°13' E 103°53'3 5.7
2017-Dec-08 21:30N 01°11' E 103°51'5 9.1
2017-Dec-08 21:00N 01°09' E 103°47'510.9
2017-Dec-08 20:30N 01°05' E 103°44'5 9.8
2017-Dec-08 20:01N 01°03' E 103°39'612.6
2017-Dec-08 19:31N 01°06' E 103°34'814.0
2017-Dec-08 18:57N 01°10' E 103°27'614.2
2017-Dec-08 18:30N 01°13' E 103°22'  

Dump ship's entire track history